createdAt,value
2022-10-05T00:00:30.877Z,12.20
2022-10-05T00:02:59.343Z,12.20
2022-10-05T00:05:30.279Z,12.20
2022-10-05T00:08:05.661Z,12.10
2022-10-05T00:10:34.099Z,12.10
2022-10-05T00:13:03.746Z,12.00
2022-10-05T00:15:31.558Z,12.00
2022-10-05T00:17:59.862Z,11.90
2022-10-05T00:20:27.954Z,11.90
2022-10-05T00:22:58.595Z,11.90
2022-10-05T00:25:26.688Z,11.90
2022-10-05T00:27:57.422Z,11.90
2022-10-05T00:30:31.911Z,11.90
2022-10-05T00:33:00.021Z,11.80
2022-10-05T00:35:29.383Z,11.80
2022-10-05T00:37:57.722Z,11.80
2022-10-05T00:40:36.561Z,11.80
2022-10-05T00:43:20.358Z,11.80
2022-10-05T00:45:53.965Z,11.70
2022-10-05T00:48:30.042Z,11.70
2022-10-05T00:51:15.358Z,11.60
2022-10-05T00:53:49.753Z,11.60
2022-10-05T00:56:37.619Z,11.60
2022-10-05T00:59:17.174Z,11.60
2022-10-05T01:01:53.647Z,11.70
2022-10-05T01:04:28.460Z,11.70
2022-10-05T01:07:09.051Z,11.70
2022-10-05T01:09:43.478Z,11.60
2022-10-05T01:12:22.167Z,11.70
2022-10-05T01:14:57.036Z,11.70
2022-10-05T01:17:30.305Z,11.70
2022-10-05T01:20:27.516Z,11.70
2022-10-05T01:23:30.236Z,11.70
2022-10-05T01:26:13.617Z,11.60
2022-10-05T01:28:48.874Z,11.60
2022-10-05T01:31:23.828Z,11.60
2022-10-05T01:33:57.924Z,11.60
2022-10-05T01:36:32.035Z,11.60
2022-10-05T01:39:05.964Z,11.60
2022-10-05T01:41:42.135Z,11.50
2022-10-05T01:44:15.477Z,11.50
2022-10-05T01:46:48.266Z,11.40
2022-10-05T01:49:32.637Z,11.40
2022-10-05T01:52:12.071Z,11.30
2022-10-05T01:54:50.813Z,11.30
2022-10-05T01:57:29.362Z,11.30
2022-10-05T02:00:06.602Z,11.30
2022-10-05T02:02:39.663Z,11.30
2022-10-05T02:05:12.066Z,11.30
2022-10-05T02:07:45.521Z,11.30
2022-10-05T02:10:22.061Z,11.30
2022-10-05T02:12:54.021Z,11.30
2022-10-05T02:15:26.765Z,11.30
2022-10-05T02:18:00.501Z,11.30
2022-10-05T02:20:30.895Z,11.30
2022-10-05T02:23:04.642Z,11.30
2022-10-05T02:25:36.436Z,11.30
2022-10-05T02:28:09.050Z,11.30
2022-10-05T02:30:44.207Z,11.30
2022-10-05T02:33:18.530Z,11.30
2022-10-05T02:35:46.396Z,11.30
2022-10-05T02:38:22.507Z,11.30
2022-10-05T02:40:59.408Z,11.20
2022-10-05T02:43:38.980Z,11.20
2022-10-05T02:46:19.376Z,11.20
2022-10-05T02:49:00.238Z,11.20
2022-10-05T02:51:35.094Z,11.10
2022-10-05T02:54:16.418Z,11.10
2022-10-05T02:56:52.530Z,11.10
2022-10-05T02:59:27.316Z,11.10
2022-10-05T03:02:01.370Z,11.00
2022-10-05T03:04:38.668Z,11.00
2022-10-05T03:07:13.917Z,10.90
2022-10-05T03:09:46.484Z,10.90
2022-10-05T03:12:26.472Z,11.00
2022-10-05T03:15:04.461Z,10.90
2022-10-05T03:17:40.550Z,10.90
2022-10-05T03:20:21.796Z,10.90
2022-10-05T03:22:52.876Z,10.90
2022-10-05T03:25:51.581Z,10.90
2022-10-05T03:28:24.193Z,10.90
2022-10-05T03:31:00.524Z,10.90
2022-10-05T03:33:40.636Z,11.00
2022-10-05T03:36:18.380Z,10.90
2022-10-05T03:38:51.006Z,10.90
2022-10-05T03:41:25.745Z,10.90
2022-10-05T03:44:05.432Z,10.90
2022-10-05T03:46:45.641Z,10.80
2022-10-05T03:49:24.301Z,10.80
2022-10-05T03:52:00.036Z,10.70
2022-10-05T03:54:31.779Z,10.70
2022-10-05T03:57:07.672Z,10.70
2022-10-05T03:59:40.400Z,10.80
2022-10-05T04:02:16.655Z,10.70
2022-10-05T04:04:51.643Z,10.80
2022-10-05T04:07:33.121Z,10.70
2022-10-05T04:10:04.247Z,10.70
2022-10-05T04:12:36.997Z,10.70
2022-10-05T04:15:10.090Z,10.70
2022-10-05T04:17:43.285Z,10.70
2022-10-05T04:20:19.969Z,10.70
2022-10-05T04:23:02.206Z,10.60
2022-10-05T04:25:35.671Z,10.60
2022-10-05T04:28:11.155Z,10.50
2022-10-05T04:30:43.142Z,10.60
2022-10-05T04:33:13.683Z,10.50
2022-10-05T04:36:05.817Z,10.50
2022-10-05T04:38:44.484Z,10.50
2022-10-05T04:41:34.634Z,10.50
2022-10-05T04:44:18.004Z,10.50
2022-10-05T04:47:03.344Z,10.50
2022-10-05T04:49:49.762Z,10.40
2022-10-05T04:52:26.442Z,10.40
2022-10-05T04:55:13.066Z,10.40
2022-10-05T04:57:45.362Z,10.40
2022-10-05T05:00:26.856Z,10.40
2022-10-05T05:03:33.036Z,10.40
2022-10-05T05:06:17.477Z,10.40
2022-10-05T05:09:18.049Z,10.40
2022-10-05T05:11:57.877Z,10.40
2022-10-05T05:14:47.684Z,10.30
2022-10-05T05:17:29.774Z,10.40
2022-10-05T05:20:08.775Z,10.40
2022-10-05T05:22:46.271Z,10.30
2022-10-05T05:25:25.858Z,10.30
2022-10-05T05:27:56.010Z,10.30
2022-10-05T05:30:27.809Z,10.30
2022-10-05T05:33:17.903Z,10.30
2022-10-05T05:36:15.264Z,10.30
2022-10-05T05:38:50.687Z,10.30
2022-10-05T05:41:26.334Z,10.20
2022-10-05T05:44:05.842Z,10.20
2022-10-05T05:47:02.335Z,10.20
2022-10-05T05:49:33.167Z,10.20
2022-10-05T05:52:05.644Z,10.20
2022-10-05T05:54:39.887Z,10.20
2022-10-05T05:57:14.842Z,10.20
2022-10-05T05:59:57.628Z,10.20
2022-10-05T06:02:31.757Z,10.20
2022-10-05T06:05:04.960Z,10.20
2022-10-05T06:07:32.894Z,10.10
2022-10-05T06:10:07.160Z,10.10
2022-10-05T06:12:40.685Z,10.10
2022-10-05T06:15:19.014Z,10.10
2022-10-05T06:17:52.688Z,10.10
2022-10-05T06:20:26.613Z,10.10
2022-10-05T06:22:58.718Z,10.20
2022-10-05T06:25:34.835Z,10.20
2022-10-05T06:28:11.343Z,10.20
2022-10-05T06:30:48.700Z,10.30
2022-10-05T06:33:28.528Z,10.30
2022-10-05T06:36:10.748Z,10.40
2022-10-05T06:39:06.344Z,10.50
2022-10-05T06:41:44.496Z,10.50
2022-10-05T06:44:18.523Z,10.60
2022-10-05T06:46:56.610Z,10.60
2022-10-05T06:49:30.310Z,10.70
2022-10-05T06:52:04.649Z,10.80
2022-10-05T06:54:47.336Z,10.90
2022-10-05T06:57:33.064Z,10.90
2022-10-05T07:00:05.169Z,11.00
2022-10-05T07:02:41.489Z,11.00
2022-10-05T07:05:43.468Z,11.00
2022-10-05T07:08:14.556Z,11.00
2022-10-05T07:10:57.722Z,11.00
2022-10-05T07:13:43.550Z,11.10
2022-10-05T07:16:23.796Z,11.20
2022-10-05T07:19:05.160Z,11.20
2022-10-05T07:21:39.804Z,11.30
2022-10-05T07:24:24.686Z,11.30
2022-10-05T07:27:00.803Z,11.50
2022-10-05T07:29:35.318Z,11.60
2022-10-05T07:32:13.812Z,11.80
2022-10-05T07:34:54.705Z,12.10
2022-10-05T07:37:49.021Z,12.60
2022-10-05T07:40:22.032Z,13.20
2022-10-05T07:43:03.058Z,13.90
2022-10-05T07:45:37.962Z,14.30
2022-10-05T07:48:14.564Z,14.70
2022-10-05T07:50:53.504Z,15.20
2022-10-05T07:53:26.719Z,15.70
2022-10-05T07:55:56.789Z,16.20
2022-10-05T07:58:29.424Z,16.70
2022-10-05T08:01:11.137Z,17.10
2022-10-05T08:03:49.370Z,17.40
2022-10-05T08:06:34.677Z,17.70
2022-10-05T08:09:09.848Z,18.10
2022-10-05T08:11:46.607Z,18.50
2022-10-05T08:14:20.599Z,19.00
2022-10-05T08:16:53.045Z,19.60
2022-10-05T08:19:30.153Z,20.10
2022-10-05T08:22:04.317Z,20.80
2022-10-05T08:24:41.831Z,21.50
2022-10-05T08:27:15.960Z,22.20
2022-10-05T08:29:50.768Z,22.90
2022-10-05T08:32:24.825Z,23.40
2022-10-05T08:35:02.327Z,23.90
2022-10-05T08:37:35.289Z,24.40
2022-10-05T08:40:33.163Z,25.00
2022-10-05T08:43:17.469Z,25.40
2022-10-05T08:46:23.144Z,25.80
2022-10-05T08:49:21.925Z,26.20
2022-10-05T08:52:19.366Z,26.60
2022-10-05T08:55:14.208Z,27.10
2022-10-05T08:57:59.756Z,27.60
2022-10-05T09:00:37.425Z,28.20
2022-10-05T09:03:25.680Z,28.80
2022-10-05T09:06:22.783Z,29.30
2022-10-05T09:09:10.657Z,29.90
2022-10-05T09:11:41.046Z,30.50
2022-10-05T09:14:33.662Z,31.10
2022-10-05T09:17:19.531Z,31.70
2022-10-05T09:20:11.054Z,32.30
2022-10-05T09:23:06.417Z,32.80
2022-10-05T09:25:58.024Z,33.30
2022-10-05T09:28:32.391Z,33.90
2022-10-05T09:31:20.210Z,34.40
2022-10-05T09:34:19.611Z,34.80
2022-10-05T09:37:29.412Z,35.10
2022-10-05T09:40:35.973Z,35.50
2022-10-05T09:43:20.978Z,36.00
2022-10-05T09:46:23.476Z,36.50
2022-10-05T09:49:29.428Z,37.00
2022-10-05T09:52:16.465Z,37.50
2022-10-05T09:55:21.839Z,38.00
2022-10-05T09:58:28.323Z,38.50
2022-10-05T10:01:36.419Z,38.90
2022-10-05T10:04:30.378Z,39.50
2022-10-05T10:07:25.331Z,39.70
2022-10-05T10:10:13.685Z,39.60
2022-10-05T10:13:01.765Z,39.70
2022-10-05T10:15:57.648Z,39.90
2022-10-05T10:18:57.479Z,40.20
2022-10-05T10:22:02.925Z,40.50
2022-10-05T10:24:47.138Z,41.00
2022-10-05T10:27:31.481Z,41.30
2022-10-05T10:30:18.749Z,41.30
2022-10-05T10:33:15.572Z,41.40
2022-10-05T10:35:51.030Z,41.90
2022-10-05T10:38:41.209Z,42.40
2022-10-05T10:41:45.295Z,43.00
2022-10-05T10:44:47.970Z,43.30
2022-10-05T10:47:44.791Z,43.60
2022-10-05T10:51:00.734Z,43.80
2022-10-05T10:54:07.215Z,43.90
2022-10-05T10:56:51.624Z,44.00
2022-10-05T10:59:56.468Z,44.00
2022-10-05T11:02:45.240Z,44.00
2022-10-05T11:05:29.587Z,43.80
2022-10-05T11:08:46.338Z,43.60
2022-10-05T11:11:35.362Z,43.50
2022-10-05T11:14:40.547Z,43.30
2022-10-05T11:17:29.355Z,43.00
2022-10-05T11:20:20.647Z,42.90
2022-10-05T11:22:58.770Z,42.90
2022-10-05T11:25:54.350Z,43.30
2022-10-05T11:28:42.066Z,43.50
2022-10-05T11:31:44.578Z,43.70
2022-10-05T11:34:33.438Z,43.60
2022-10-05T11:37:26.888Z,43.70
2022-10-05T11:40:16.660Z,44.00
2022-10-05T11:43:23.151Z,44.20
2022-10-05T11:46:06.032Z,44.40
2022-10-05T11:49:01.837Z,44.70
2022-10-05T11:51:38.237Z,44.70
2022-10-05T11:54:23.359Z,44.50
2022-10-05T11:56:57.948Z,44.60
2022-10-05T11:59:35.505Z,44.60
2022-10-05T12:02:32.789Z,44.40
2022-10-05T12:05:10.835Z,44.30
2022-10-05T12:07:43.147Z,44.20
2022-10-05T12:10:24.401Z,44.00
2022-10-05T12:13:05.609Z,44.30
2022-10-05T12:15:43.575Z,44.30
2022-10-05T12:18:20.508Z,44.50
2022-10-05T12:20:53.282Z,44.80
2022-10-05T12:23:26.284Z,45.00
2022-10-05T12:26:01.153Z,44.80
2022-10-05T12:28:36.049Z,44.50
2022-10-05T12:31:25.304Z,44.10
2022-10-05T12:34:02.523Z,44.00
2022-10-05T12:37:02.507Z,43.80
2022-10-05T12:39:30.650Z,43.80
2022-10-05T12:42:09.231Z,43.40
2022-10-05T12:45:03.731Z,42.80
2022-10-05T12:47:40.316Z,42.30
2022-10-05T12:50:20.817Z,41.90
2022-10-05T12:53:04.594Z,41.40
2022-10-05T12:55:42.433Z,41.10
2022-10-05T12:58:27.361Z,41.10
2022-10-05T13:01:01.318Z,40.80
2022-10-05T13:03:35.303Z,40.30
2022-10-05T13:06:16.246Z,39.80
2022-10-05T13:08:52.429Z,39.40
2022-10-05T13:11:29.303Z,39.50
2022-10-05T13:14:07.399Z,39.70
2022-10-05T13:16:41.305Z,39.70
2022-10-05T13:19:20.570Z,39.50
2022-10-05T13:22:14.208Z,39.40
2022-10-05T13:24:52.887Z,39.00
2022-10-05T13:27:25.279Z,38.50
2022-10-05T13:29:57.146Z,37.80
2022-10-05T13:32:28.172Z,37.50
2022-10-05T13:35:07.884Z,37.00
2022-10-05T13:37:51.347Z,36.40
2022-10-05T13:40:25.716Z,35.80
2022-10-05T13:42:59.880Z,35.30
2022-10-05T13:45:33.450Z,34.50
2022-10-05T13:48:13.994Z,34.00
2022-10-05T13:50:49.255Z,33.50
2022-10-05T13:53:24.262Z,33.10
2022-10-05T13:55:59.896Z,32.80
2022-10-05T13:58:34.703Z,32.30
2022-10-05T14:01:07.146Z,31.70
2022-10-05T14:03:36.958Z,31.50
2022-10-05T14:06:27.566Z,31.20
2022-10-05T14:08:58.193Z,31.10
2022-10-05T14:11:31.543Z,31.00
2022-10-05T14:14:13.407Z,30.60
2022-10-05T14:16:50.732Z,30.10
2022-10-05T14:19:21.887Z,29.70
2022-10-05T14:21:55.586Z,29.30
2022-10-05T14:24:45.917Z,28.90
2022-10-05T14:27:22.096Z,28.60
2022-10-05T14:29:57.231Z,28.20
2022-10-05T14:32:27.038Z,28.00
2022-10-05T14:35:06.087Z,27.70
2022-10-05T14:37:45.118Z,27.50
2022-10-05T14:40:30.187Z,27.20
2022-10-05T14:43:00.208Z,27.10
2022-10-05T14:45:30.272Z,26.80
2022-10-05T14:48:11.384Z,26.60
2022-10-05T14:50:55.024Z,26.40
2022-10-05T14:53:24.912Z,26.30
2022-10-05T14:56:17.455Z,26.20
2022-10-05T14:59:07.535Z,26.00
2022-10-05T15:01:39.222Z,26.00
2022-10-05T15:04:22.929Z,25.90
2022-10-05T15:07:05.236Z,25.80
2022-10-05T15:09:45.239Z,25.70
2022-10-05T15:12:19.879Z,25.60
2022-10-05T15:14:48.433Z,25.50
2022-10-05T15:17:21.187Z,25.50
2022-10-05T15:20:01.671Z,25.30
2022-10-05T15:22:32.874Z,25.30
2022-10-05T15:25:10.850Z,25.20
2022-10-05T15:27:54.734Z,25.10
2022-10-05T15:30:24.454Z,25.00
2022-10-05T15:33:08.867Z,24.80
2022-10-05T15:36:04.594Z,24.70
2022-10-05T15:38:39.985Z,24.60
2022-10-05T15:41:14.760Z,24.40
2022-10-05T15:43:50.930Z,24.20
2022-10-05T15:46:23.366Z,24.10
2022-10-05T15:49:01.658Z,24.00
2022-10-05T15:51:42.311Z,23.90
2022-10-05T15:54:35.514Z,23.70
2022-10-05T15:57:09.010Z,23.50
2022-10-05T15:59:45.858Z,23.40
2022-10-05T16:02:19.774Z,23.30
2022-10-05T16:04:58.992Z,23.10
2022-10-05T16:07:55.534Z,23.00
2022-10-05T16:10:25.029Z,22.90
2022-10-05T16:13:05.832Z,22.80
2022-10-05T16:15:42.577Z,22.80
2022-10-05T16:18:46.879Z,22.70
2022-10-05T16:21:25.845Z,22.60
2022-10-05T16:24:10.500Z,22.40
2022-10-05T16:26:51.340Z,22.30
2022-10-05T16:29:28.345Z,22.20
2022-10-05T16:32:04.331Z,22.10
2022-10-05T16:34:44.384Z,22.00
2022-10-05T16:37:18.292Z,21.90
2022-10-05T16:39:53.582Z,21.80
2022-10-05T16:42:48.021Z,21.70
2022-10-05T16:45:28.456Z,21.70
2022-10-05T16:48:07.406Z,21.60
2022-10-05T16:50:44.543Z,21.50
2022-10-05T16:53:18.806Z,21.40
2022-10-05T16:55:50.557Z,21.40
2022-10-05T16:58:23.593Z,21.40
2022-10-05T17:01:11.785Z,21.30
2022-10-05T17:04:01.982Z,21.30
2022-10-05T17:06:56.596Z,21.30
2022-10-05T17:09:44.613Z,21.30
2022-10-05T17:12:29.343Z,21.30
2022-10-05T17:15:15.618Z,21.30
2022-10-05T17:18:27.158Z,21.20
2022-10-05T17:21:05.447Z,21.20
2022-10-05T17:23:43.543Z,21.10
2022-10-05T17:26:39.903Z,21.00
2022-10-05T17:29:16.246Z,20.90
2022-10-05T17:32:10.071Z,20.80
2022-10-05T17:34:39.667Z,20.70
2022-10-05T17:37:35.112Z,20.60
2022-10-05T17:40:33.043Z,20.50
2022-10-05T17:43:04.561Z,20.40
2022-10-05T17:45:53.226Z,20.30
2022-10-05T17:48:44.556Z,20.20
2022-10-05T17:51:57.228Z,20.10
2022-10-05T17:54:48.135Z,20.00
2022-10-05T17:57:22.557Z,20.00
2022-10-05T18:00:00.502Z,19.90
2022-10-05T18:02:42.757Z,19.80
2022-10-05T18:05:25.617Z,19.70
2022-10-05T18:08:32.612Z,19.60
2022-10-05T18:11:36.597Z,19.50
2022-10-05T18:14:19.518Z,19.40
2022-10-05T18:17:01.708Z,19.30
2022-10-05T18:19:32.425Z,19.20
2022-10-05T18:22:03.274Z,19.10
2022-10-05T18:24:55.706Z,19.00
2022-10-05T18:27:39.832Z,19.00
2022-10-05T18:30:18.907Z,18.90
2022-10-05T18:33:02.836Z,18.80
2022-10-05T18:35:42.831Z,18.80
2022-10-05T18:38:27.460Z,18.70
2022-10-05T18:40:59.111Z,18.60
2022-10-05T18:43:36.598Z,18.60
2022-10-05T18:46:19.482Z,18.50
2022-10-05T18:48:55.311Z,18.40
2022-10-05T18:51:29.074Z,18.40
2022-10-05T18:54:08.900Z,18.30
2022-10-05T18:56:42.091Z,18.30
2022-10-05T18:59:26.672Z,18.20
2022-10-05T19:02:03.413Z,18.10
2022-10-05T19:04:41.686Z,18.00
2022-10-05T19:07:19.487Z,18.00
2022-10-05T19:10:00.765Z,17.90
2022-10-05T19:12:41.572Z,17.90
2022-10-05T19:15:19.406Z,17.80
2022-10-05T19:18:12.283Z,17.80
2022-10-05T19:20:45.382Z,17.80
2022-10-05T19:23:26.959Z,17.70
2022-10-05T19:25:59.692Z,17.70
2022-10-05T19:28:32.270Z,17.70
2022-10-05T19:31:30.006Z,17.60
2022-10-05T19:34:16.399Z,17.60
2022-10-05T19:36:59.167Z,17.60
2022-10-05T19:39:38.110Z,17.60
2022-10-05T19:42:27.776Z,17.50
2022-10-05T19:45:10.264Z,17.50
2022-10-05T19:47:47.300Z,17.40
2022-10-05T19:50:28.165Z,17.40
2022-10-05T19:53:07.291Z,17.30
2022-10-05T19:55:41.580Z,17.30
2022-10-05T19:58:21.383Z,17.30
2022-10-05T20:00:59.898Z,17.20
2022-10-05T20:03:31.196Z,17.10
2022-10-05T20:06:00.518Z,17.10
2022-10-05T20:08:37.289Z,17.10
2022-10-05T20:11:11.576Z,17.10
2022-10-05T20:13:41.742Z,17.00
2022-10-05T20:16:37.466Z,17.10
2022-10-05T20:19:43.942Z,17.00
2022-10-05T20:22:29.537Z,17.00
2022-10-05T20:25:00.060Z,16.90
2022-10-05T20:27:55.387Z,16.90
2022-10-05T20:30:24.952Z,16.90
2022-10-05T20:32:57.534Z,16.90
2022-10-05T20:35:29.644Z,16.80
2022-10-05T20:37:59.402Z,16.80
2022-10-05T20:40:27.480Z,16.80
2022-10-05T20:42:55.353Z,16.70
2022-10-05T20:45:23.249Z,16.70
2022-10-05T20:47:51.137Z,16.70
2022-10-05T20:50:20.492Z,16.70
2022-10-05T20:52:49.682Z,16.60
2022-10-05T20:55:17.553Z,16.70
2022-10-05T20:57:46.112Z,16.60
2022-10-05T21:00:14.795Z,16.60
2022-10-05T21:02:42.610Z,16.50
2022-10-05T21:05:10.790Z,16.50
2022-10-05T21:07:38.807Z,16.50
2022-10-05T21:10:08.883Z,16.40
2022-10-05T21:12:36.798Z,16.40
2022-10-05T21:15:05.781Z,16.40
2022-10-05T21:17:35.158Z,16.30
2022-10-05T21:20:03.241Z,16.30
2022-10-05T21:22:31.061Z,16.30
2022-10-05T21:24:58.872Z,16.20
2022-10-05T21:27:28.179Z,16.20
2022-10-05T21:29:56.132Z,16.20
2022-10-05T21:32:23.998Z,16.10
2022-10-05T21:34:51.851Z,16.10
2022-10-05T21:37:19.932Z,16.10
2022-10-05T21:39:47.928Z,16.10
2022-10-05T21:42:15.855Z,16.10
2022-10-05T21:44:45.041Z,16.00
2022-10-05T21:47:12.950Z,16.00
2022-10-05T21:49:42.125Z,16.00
2022-10-05T21:52:10.033Z,15.90
2022-10-05T21:54:37.898Z,15.90
2022-10-05T21:57:06.015Z,15.90
2022-10-05T21:59:35.702Z,15.80
2022-10-05T22:02:05.119Z,15.80
2022-10-05T22:04:33.000Z,15.80
2022-10-05T22:07:01.129Z,15.80
2022-10-05T22:09:28.972Z,15.80
2022-10-05T22:11:57.325Z,15.80
2022-10-05T22:14:25.259Z,15.80
2022-10-05T22:16:53.448Z,15.70
2022-10-05T22:19:22.716Z,15.70
2022-10-05T22:21:50.552Z,15.70
2022-10-05T22:24:18.375Z,15.70
2022-10-05T22:26:51.328Z,15.70
2022-10-05T22:29:19.926Z,15.60
2022-10-05T22:31:49.171Z,15.60
2022-10-05T22:34:17.810Z,15.60
2022-10-05T22:36:47.369Z,15.60
2022-10-05T22:39:15.395Z,15.50
2022-10-05T22:41:43.675Z,15.50
2022-10-05T22:44:11.613Z,15.50
2022-10-05T22:46:39.710Z,15.50
2022-10-05T22:49:07.574Z,15.50
2022-10-05T22:51:35.510Z,15.40
2022-10-05T22:54:04.859Z,15.50
2022-10-05T22:56:32.740Z,15.40
2022-10-05T22:59:00.561Z,15.40
2022-10-05T23:01:28.444Z,15.40
2022-10-05T23:03:57.241Z,15.40
2022-10-05T23:06:26.388Z,15.30
2022-10-05T23:08:55.093Z,15.30
2022-10-05T23:11:26.629Z,15.30
2022-10-05T23:13:56.774Z,15.30
2022-10-05T23:16:26.752Z,15.20
2022-10-05T23:18:55.935Z,15.20
2022-10-05T23:21:25.112Z,15.20
2022-10-05T23:23:52.933Z,15.20
2022-10-05T23:26:23.325Z,15.20
2022-10-05T23:28:52.835Z,15.20
2022-10-05T23:31:23.394Z,15.20
2022-10-05T23:33:52.052Z,15.20
2022-10-05T23:36:21.692Z,15.20
2022-10-05T23:38:49.528Z,15.20
2022-10-05T23:41:17.952Z,15.20
2022-10-05T23:43:45.809Z,15.20
2022-10-05T23:46:15.387Z,15.20
2022-10-05T23:48:43.224Z,15.20
2022-10-05T23:51:12.924Z,15.20
2022-10-05T23:53:40.787Z,15.20
2022-10-05T23:56:09.051Z,15.20
2022-10-05T23:58:36.977Z,15.10
